createdAt,value
2022-11-05T00:01:47.898Z,20.35
2022-11-05T00:04:33.102Z,20.36
2022-11-05T00:07:45.130Z,20.34
2022-11-05T00:10:19.092Z,20.33
2022-11-05T00:16:04.601Z,20.31
2022-11-05T00:18:31.330Z,20.32
2022-11-05T00:20:57.799Z,20.33
2022-11-05T00:23:42.878Z,20.32
2022-11-05T00:26:11.481Z,20.32
2022-11-05T00:28:38.955Z,20.32
2022-11-05T00:31:09.983Z,20.32
2022-11-05T00:33:37.781Z,20.30
2022-11-05T00:36:05.351Z,20.29
2022-11-05T00:38:32.430Z,20.29
2022-11-05T00:40:59.405Z,20.26
2022-11-05T00:43:44.653Z,20.28
2022-11-05T00:46:11.228Z,20.28
2022-11-05T00:48:56.335Z,20.30
2022-11-05T00:51:22.789Z,20.27
2022-11-05T00:53:49.254Z,20.27
2022-11-05T00:56:15.703Z,20.24
2022-11-05T00:58:42.197Z,20.25
2022-11-05T01:01:10.282Z,20.24
2022-11-05T01:03:39.386Z,20.24
2022-11-05T01:06:12.736Z,20.23
2022-11-05T01:08:40.211Z,20.23
2022-11-05T01:11:33.120Z,20.23
2022-11-05T01:14:09.779Z,20.25
2022-11-05T01:16:37.506Z,20.22
2022-11-05T01:19:08.387Z,20.21
2022-11-05T01:21:35.028Z,20.21
2022-11-05T01:24:02.438Z,20.20
2022-11-05T01:26:29.610Z,20.20
2022-11-05T01:29:00.413Z,20.20
2022-11-05T01:31:28.558Z,20.20
2022-11-05T01:33:55.197Z,20.20
2022-11-05T01:36:21.670Z,20.19
2022-11-05T01:38:48.251Z,20.18
2022-11-05T01:41:14.780Z,20.19
2022-11-05T01:44:00.871Z,20.16
2022-11-05T01:46:44.868Z,20.17
2022-11-05T01:49:26.093Z,20.16
2022-11-05T01:51:52.713Z,20.14
2022-11-05T01:54:26.281Z,20.15
2022-11-05T01:56:58.590Z,20.14
2022-11-05T01:59:28.228Z,20.17
2022-11-05T02:01:55.071Z,20.13
2022-11-05T02:04:30.146Z,20.13
2022-11-05T02:06:56.956Z,20.12
2022-11-05T02:09:29.482Z,20.12
2022-11-05T02:11:56.069Z,20.12
2022-11-05T02:14:22.936Z,20.12
2022-11-05T02:17:24.166Z,20.11
2022-11-05T02:23:31.880Z,20.11
2022-11-05T02:26:19.111Z,20.10
2022-11-05T02:28:51.469Z,20.09
2022-11-05T02:31:21.156Z,20.09
2022-11-05T02:33:57.069Z,20.08
2022-11-05T02:36:35.620Z,20.07
2022-11-05T02:39:12.077Z,20.07
2022-11-05T02:42:06.629Z,20.06
2022-11-05T02:47:57.007Z,20.07
2022-11-05T02:50:58.555Z,20.05
2022-11-05T02:53:37.272Z,20.05
2022-11-05T02:56:13.304Z,20.05
2022-11-05T02:58:39.800Z,20.05
2022-11-05T03:01:07.150Z,20.05
2022-11-05T03:03:47.436Z,20.04
2022-11-05T03:06:46.868Z,20.01
2022-11-05T03:09:46.883Z,20.03
2022-11-05T03:12:35.199Z,20.03
2022-11-05T03:15:07.573Z,20.02
2022-11-05T03:17:55.304Z,20.00
2022-11-05T03:23:26.463Z,20.01
2022-11-05T03:26:09.149Z,20.00
2022-11-05T03:28:38.785Z,20.00
2022-11-05T03:31:07.850Z,20.00
2022-11-05T03:33:37.067Z,20.00
2022-11-05T03:36:08.057Z,20.00
2022-11-05T03:38:38.631Z,19.99
2022-11-05T03:41:07.347Z,19.99
2022-11-05T03:43:43.304Z,19.99
2022-11-05T03:46:13.933Z,19.98
2022-11-05T03:48:45.836Z,19.98
2022-11-05T03:51:16.380Z,19.97
2022-11-05T03:53:49.958Z,19.97
2022-11-05T03:56:39.848Z,19.96
2022-11-05T03:59:09.172Z,19.97
2022-11-05T04:01:37.947Z,19.96
2022-11-05T04:04:08.676Z,19.95
2022-11-05T04:06:54.141Z,19.95
2022-11-05T04:09:39.473Z,19.95
2022-11-05T04:12:24.861Z,19.95
2022-11-05T04:14:51.331Z,19.94
2022-11-05T04:17:17.818Z,19.94
2022-11-05T04:20:04.254Z,19.94
2022-11-05T04:22:52.090Z,19.94
2022-11-05T04:25:19.877Z,19.92
2022-11-05T04:27:47.313Z,19.94
2022-11-05T04:30:19.214Z,19.94
2022-11-05T04:33:06.750Z,19.92
2022-11-05T04:35:36.145Z,19.91
2022-11-05T04:38:04.980Z,19.91
2022-11-05T04:40:32.036Z,19.92
2022-11-05T04:42:58.556Z,19.89
2022-11-05T04:45:27.503Z,19.89
2022-11-05T04:47:54.489Z,19.89
2022-11-05T04:50:21.582Z,19.89
2022-11-05T04:52:48.146Z,19.89
2022-11-05T04:55:14.974Z,19.89
2022-11-05T04:57:41.522Z,19.89
2022-11-05T05:00:08.902Z,19.88
2022-11-05T05:02:35.895Z,19.88
2022-11-05T05:05:02.622Z,19.88
2022-11-05T05:07:29.272Z,19.88
2022-11-05T05:09:55.960Z,19.87
2022-11-05T05:12:22.896Z,19.86
2022-11-05T05:14:49.749Z,19.86
2022-11-05T05:17:17.064Z,19.87
2022-11-05T05:20:02.685Z,19.86
2022-11-05T05:22:29.207Z,19.86
2022-11-05T05:24:56.713Z,19.86
2022-11-05T05:27:24.155Z,19.85
2022-11-05T05:29:50.701Z,19.83
2022-11-05T05:32:17.385Z,19.85
2022-11-05T05:34:44.129Z,19.85
2022-11-05T05:37:10.600Z,19.84
2022-11-05T05:39:37.039Z,19.82
2022-11-05T05:42:03.577Z,19.83
2022-11-05T05:44:30.096Z,19.84
2022-11-05T05:46:56.543Z,19.83
2022-11-05T05:49:23.054Z,19.83
2022-11-05T05:51:50.011Z,19.82
2022-11-05T05:54:16.705Z,19.82
2022-11-05T05:56:44.547Z,19.83
2022-11-05T05:59:11.405Z,19.83
2022-11-05T06:01:38.197Z,19.81
2022-11-05T06:04:05.011Z,19.81
2022-11-05T06:06:31.569Z,19.81
2022-11-05T06:08:58.092Z,19.81
2022-11-05T06:11:25.365Z,19.80
2022-11-05T06:13:51.889Z,19.79
2022-11-05T06:16:19.491Z,19.80
2022-11-05T06:18:46.930Z,19.80
2022-11-05T06:21:15.950Z,19.80
2022-11-05T06:23:44.641Z,19.81
2022-11-05T06:26:14.101Z,19.80
2022-11-05T06:28:42.035Z,19.80
2022-11-05T06:31:09.944Z,19.78
2022-11-05T06:33:36.842Z,19.79
2022-11-05T06:36:04.449Z,19.78
2022-11-05T06:38:36.470Z,19.79
2022-11-05T06:41:09.784Z,19.78
2022-11-05T06:43:37.623Z,19.77
2022-11-05T06:46:04.444Z,19.76
2022-11-05T06:48:30.913Z,19.77
2022-11-05T06:50:57.830Z,19.77
2022-11-05T06:53:24.344Z,19.78
2022-11-05T06:55:50.875Z,19.77
2022-11-05T06:58:17.303Z,19.77
2022-11-05T07:00:43.836Z,19.76
2022-11-05T07:03:12.296Z,19.76
2022-11-05T07:05:43.892Z,19.77
2022-11-05T07:08:10.402Z,19.76
2022-11-05T07:10:36.965Z,19.77
2022-11-05T07:13:08.172Z,19.77
2022-11-05T07:15:35.537Z,19.77
2022-11-05T07:18:02.466Z,19.76
2022-11-05T07:20:33.460Z,19.76
2022-11-05T07:23:05.577Z,19.75
2022-11-05T07:25:33.271Z,19.75
2022-11-05T07:28:00.000Z,19.77
2022-11-05T07:30:27.020Z,19.77
2022-11-05T07:32:53.545Z,19.76
2022-11-05T07:35:20.357Z,19.75
2022-11-05T07:37:49.327Z,19.73
2022-11-05T07:40:18.484Z,19.74
2022-11-05T07:42:47.160Z,19.73
2022-11-05T07:45:14.065Z,19.73
2022-11-05T07:47:52.645Z,19.75
2022-11-05T07:50:21.683Z,19.73
2022-11-05T07:52:48.971Z,19.74
2022-11-05T07:55:16.272Z,19.72
2022-11-05T07:57:44.748Z,19.73
2022-11-05T08:00:17.151Z,19.75
2022-11-05T08:02:43.944Z,19.73
2022-11-05T08:05:10.675Z,19.75
2022-11-05T08:07:37.226Z,19.73
2022-11-05T08:10:04.356Z,19.72
2022-11-05T08:12:33.679Z,19.71
2022-11-05T08:15:00.191Z,19.72
2022-11-05T08:17:26.905Z,19.71
2022-11-05T08:19:53.501Z,19.71
2022-11-05T08:22:19.960Z,19.74
2022-11-05T08:24:46.604Z,19.73
2022-11-05T08:27:13.384Z,19.71
2022-11-05T08:29:39.907Z,19.71
2022-11-05T08:32:06.437Z,19.72
2022-11-05T08:34:32.938Z,19.72
2022-11-05T08:37:01.363Z,19.72
2022-11-05T08:39:28.198Z,19.73
2022-11-05T08:41:54.870Z,19.72
2022-11-05T08:44:21.529Z,19.72
2022-11-05T08:46:48.111Z,19.71
2022-11-05T08:49:14.631Z,19.72
2022-11-05T08:51:41.089Z,19.72
2022-11-05T08:54:07.700Z,19.72
2022-11-05T08:56:34.211Z,19.72
2022-11-05T08:59:01.062Z,19.72
2022-11-05T09:01:27.678Z,19.73
2022-11-05T09:03:54.257Z,19.71
2022-11-05T09:06:20.915Z,19.71
2022-11-05T09:08:47.488Z,19.73
2022-11-05T09:11:13.986Z,19.71
2022-11-05T09:13:40.541Z,19.72
2022-11-05T09:16:13.598Z,19.71
2022-11-05T09:18:40.165Z,19.72
2022-11-05T09:21:06.613Z,19.72
2022-11-05T09:23:33.044Z,19.72
2022-11-05T09:25:59.488Z,19.69
2022-11-05T09:28:25.937Z,19.71
2022-11-05T09:30:52.990Z,19.72
2022-11-05T09:33:22.483Z,19.71
2022-11-05T09:35:48.964Z,19.71
2022-11-05T09:38:15.735Z,19.73
2022-11-05T09:41:01.124Z,19.72
2022-11-05T09:43:33.991Z,19.73
2022-11-05T09:46:08.525Z,19.74
2022-11-05T09:48:35.780Z,19.73
2022-11-05T09:51:05.068Z,19.75
2022-11-05T09:53:31.743Z,19.74
2022-11-05T09:56:00.266Z,19.74
2022-11-05T09:58:51.828Z,19.74
2022-11-05T10:01:24.909Z,19.72
2022-11-05T10:03:56.017Z,19.73
2022-11-05T10:06:25.391Z,19.74
2022-11-05T10:09:14.849Z,19.77
2022-11-05T10:11:51.760Z,19.75
2022-11-05T10:14:32.653Z,19.76
2022-11-05T10:17:05.235Z,19.76
2022-11-05T10:19:43.343Z,19.74
2022-11-05T10:22:13.607Z,19.75
2022-11-05T10:24:43.587Z,19.75
2022-11-05T10:27:32.027Z,19.76
2022-11-05T10:29:58.790Z,19.78
2022-11-05T10:32:30.725Z,19.80
2022-11-05T10:35:00.988Z,19.84
2022-11-05T10:37:28.864Z,19.86
2022-11-05T10:39:55.561Z,19.87
2022-11-05T10:42:40.638Z,19.90
2022-11-05T10:45:21.465Z,19.91
2022-11-05T10:48:23.409Z,19.93
2022-11-05T10:50:49.948Z,19.94
2022-11-05T10:53:21.106Z,19.94
2022-11-05T10:55:50.211Z,19.92
2022-11-05T10:58:16.617Z,19.90
2022-11-05T11:01:02.271Z,19.89
2022-11-05T11:03:34.534Z,19.89
2022-11-05T11:06:04.374Z,19.90
2022-11-05T11:08:35.340Z,19.88
2022-11-05T11:11:11.296Z,19.89
2022-11-05T11:13:56.417Z,19.88
2022-11-05T11:16:28.544Z,19.89
2022-11-05T11:19:03.262Z,19.89
2022-11-05T11:21:31.622Z,19.89
2022-11-05T11:24:04.765Z,19.89
2022-11-05T11:26:34.287Z,19.89
2022-11-05T11:29:07.960Z,19.90
2022-11-05T11:31:38.507Z,19.89
2022-11-05T11:34:16.394Z,19.88
2022-11-05T11:36:48.759Z,19.91
2022-11-05T11:39:20.373Z,19.90
2022-11-05T11:41:52.525Z,19.91
2022-11-05T11:44:26.998Z,19.91
2022-11-05T11:46:57.301Z,19.92
2022-11-05T11:49:42.157Z,19.91
2022-11-05T11:52:15.963Z,19.92
2022-11-05T11:54:42.746Z,19.92
2022-11-05T12:00:26.876Z,19.91
2022-11-05T12:03:11.856Z,19.91
2022-11-05T12:05:52.030Z,19.91
2022-11-05T12:08:23.660Z,19.91
2022-11-05T12:11:01.974Z,19.91
2022-11-05T12:16:47.547Z,19.92
2022-11-05T12:19:16.881Z,19.91
2022-11-05T12:21:55.138Z,19.92
2022-11-05T12:24:29.565Z,19.92
2022-11-05T12:27:11.350Z,19.92
2022-11-05T12:29:43.826Z,19.91
2022-11-05T12:32:33.237Z,19.91
2022-11-05T12:35:18.227Z,19.93
2022-11-05T12:37:44.647Z,19.94
2022-11-05T12:40:23.466Z,19.92
2022-11-05T12:43:14.805Z,19.94
2022-11-05T12:46:19.221Z,19.94
2022-11-05T12:49:01.062Z,19.93
2022-11-05T12:51:51.352Z,19.93
2022-11-05T12:54:34.567Z,19.92
2022-11-05T12:57:04.073Z,19.94
2022-11-05T12:59:36.451Z,19.93
2022-11-05T13:02:40.417Z,19.96
2022-11-05T13:08:15.908Z,19.95
2022-11-05T13:10:45.052Z,19.96
2022-11-05T13:13:23.186Z,19.94
2022-11-05T13:15:54.617Z,19.92
2022-11-05T13:18:47.506Z,19.91
2022-11-05T13:21:17.338Z,19.95
2022-11-05T13:24:02.313Z,19.95
2022-11-05T13:26:38.633Z,19.96
2022-11-05T13:29:12.823Z,19.96
2022-11-05T13:31:45.428Z,19.96
2022-11-05T13:34:13.212Z,19.95
2022-11-05T13:37:20.401Z,19.95
2022-11-05T13:40:03.644Z,19.94
2022-11-05T13:42:36.132Z,19.95
2022-11-05T13:45:38.905Z,19.96
2022-11-05T13:48:24.460Z,19.94
2022-11-05T13:51:17.077Z,19.94
2022-11-05T13:54:07.288Z,19.96
2022-11-05T13:56:58.718Z,19.95
2022-11-05T14:03:14.615Z,19.95
2022-11-05T14:05:42.580Z,19.96
2022-11-05T14:08:11.749Z,19.96
2022-11-05T14:10:41.681Z,19.95
2022-11-05T14:13:25.981Z,19.94
2022-11-05T14:16:07.136Z,19.94
2022-11-05T14:18:39.078Z,19.95
2022-11-05T14:21:27.099Z,19.95
2022-11-05T14:23:59.009Z,19.95
2022-11-05T14:26:32.152Z,19.94
2022-11-05T14:28:58.613Z,19.93
2022-11-05T14:32:07.670Z,19.93
2022-11-05T14:34:42.506Z,19.94
2022-11-05T14:37:12.531Z,19.94
2022-11-05T14:39:40.917Z,19.95
2022-11-05T14:42:12.078Z,19.93
2022-11-05T14:44:55.782Z,19.93
2022-11-05T14:47:25.823Z,19.95
2022-11-05T14:49:59.542Z,19.92
2022-11-05T14:52:26.160Z,19.93
2022-11-05T14:54:55.748Z,19.91
2022-11-05T14:57:41.778Z,19.91
2022-11-05T15:00:29.931Z,19.92
2022-11-05T15:03:01.951Z,19.92
2022-11-05T15:05:31.203Z,19.89
2022-11-05T15:07:59.149Z,19.91
2022-11-05T15:10:35.464Z,19.89
2022-11-05T15:13:04.903Z,19.92
2022-11-05T15:15:47.164Z,19.92
2022-11-05T15:18:24.429Z,19.90
2022-11-05T15:20:56.407Z,19.89
2022-11-05T15:23:26.087Z,19.88
2022-11-05T15:26:22.078Z,19.89
2022-11-05T15:28:53.304Z,19.89
2022-11-05T15:31:29.245Z,19.89
2022-11-05T15:34:21.943Z,19.88
2022-11-05T15:36:49.867Z,19.88
2022-11-05T15:39:49.697Z,19.89
2022-11-05T15:42:17.937Z,19.89
2022-11-05T15:44:47.036Z,19.88
2022-11-05T15:47:18.452Z,19.89
2022-11-05T15:49:48.164Z,19.87
2022-11-05T15:52:16.726Z,19.87
2022-11-05T15:54:44.043Z,19.86
2022-11-05T15:57:26.373Z,19.86
2022-11-05T15:59:53.085Z,19.86
2022-11-05T16:02:33.022Z,19.86
2022-11-05T16:05:02.846Z,19.86
2022-11-05T16:07:30.356Z,19.89
2022-11-05T16:10:01.631Z,19.87
2022-11-05T16:12:30.951Z,19.86
2022-11-05T16:15:02.238Z,19.85
2022-11-05T16:17:45.251Z,19.85
2022-11-05T16:20:28.365Z,19.86
2022-11-05T16:22:58.415Z,19.85
2022-11-05T16:25:39.852Z,19.84
2022-11-05T16:28:24.632Z,19.86
2022-11-05T16:31:02.420Z,19.84
2022-11-05T16:33:37.823Z,19.84
2022-11-05T16:36:04.771Z,19.85
2022-11-05T16:38:31.234Z,19.84
2022-11-05T16:40:58.945Z,19.83
2022-11-05T16:43:26.245Z,19.84
2022-11-05T16:45:54.969Z,19.84
2022-11-05T16:48:21.592Z,19.82
2022-11-05T16:50:48.216Z,19.83
2022-11-05T16:53:15.248Z,19.81
2022-11-05T16:55:43.649Z,19.82
2022-11-05T16:58:22.746Z,19.84
2022-11-05T17:00:50.920Z,19.84
2022-11-05T17:03:17.890Z,19.82
2022-11-05T17:05:44.643Z,19.81
2022-11-05T17:08:11.452Z,19.83
2022-11-05T17:10:38.778Z,19.83
2022-11-05T17:13:05.256Z,19.81
2022-11-05T17:15:35.628Z,19.82
2022-11-05T17:18:04.394Z,19.83
2022-11-05T17:20:42.930Z,19.82
2022-11-05T17:23:15.501Z,19.82
2022-11-05T17:25:44.527Z,19.81
2022-11-05T17:28:11.407Z,19.82
2022-11-05T17:30:41.226Z,19.81
2022-11-05T17:33:08.811Z,19.82
2022-11-05T17:35:38.283Z,19.82
2022-11-05T17:38:05.117Z,19.81
2022-11-05T17:40:34.810Z,19.80
2022-11-05T17:43:01.956Z,19.77
2022-11-05T17:45:28.700Z,19.80
2022-11-05T17:47:55.265Z,19.79
2022-11-05T17:50:22.052Z,19.78
2022-11-05T17:52:48.610Z,19.79
2022-11-05T17:55:17.774Z,19.78
2022-11-05T17:57:46.293Z,19.80
2022-11-05T18:00:14.873Z,19.79
2022-11-05T18:02:41.381Z,19.79
2022-11-05T18:05:08.588Z,19.78
2022-11-05T18:07:35.151Z,19.80
2022-11-05T18:10:01.615Z,19.78
2022-11-05T18:12:28.101Z,19.79
2022-11-05T18:14:54.548Z,19.79
2022-11-05T18:17:21.071Z,19.78
2022-11-05T18:19:47.582Z,19.79
2022-11-05T18:22:15.824Z,19.77
2022-11-05T18:24:42.264Z,19.78
2022-11-05T18:27:08.713Z,19.78
2022-11-05T18:29:35.189Z,19.77
2022-11-05T18:32:01.891Z,19.77
2022-11-05T18:34:28.458Z,19.76
2022-11-05T18:36:56.588Z,19.74
2022-11-05T18:39:23.984Z,19.76
2022-11-05T18:41:50.499Z,19.75
2022-11-05T18:44:17.055Z,19.74
2022-11-05T18:46:57.516Z,19.73
2022-11-05T18:49:25.088Z,19.74
2022-11-05T18:51:51.625Z,19.76
2022-11-05T18:54:18.160Z,19.76
2022-11-05T18:56:47.200Z,19.76
2022-11-05T18:59:35.745Z,19.75
2022-11-05T19:02:02.999Z,19.74
2022-11-05T19:04:30.659Z,19.74
2022-11-05T19:07:01.701Z,19.75
2022-11-05T19:09:31.197Z,19.75
2022-11-05T19:11:57.813Z,19.74
2022-11-05T19:14:24.303Z,19.72
2022-11-05T19:16:50.935Z,19.73
2022-11-05T19:19:17.395Z,19.74
2022-11-05T19:21:44.501Z,19.72
2022-11-05T19:24:16.591Z,19.74
2022-11-05T19:26:43.548Z,19.72
2022-11-05T19:29:10.645Z,19.72
2022-11-05T19:31:37.161Z,19.72
2022-11-05T19:34:05.457Z,19.72
2022-11-05T19:36:33.129Z,19.72
2022-11-05T19:39:06.333Z,19.72
2022-11-05T19:41:33.370Z,19.73
2022-11-05T19:44:01.695Z,19.71
2022-11-05T19:46:29.581Z,19.70
2022-11-05T19:48:56.347Z,19.71
2022-11-05T19:51:25.360Z,19.72
2022-11-05T19:53:52.834Z,19.70
2022-11-05T19:56:22.121Z,19.70
2022-11-05T19:58:49.414Z,19.71
2022-11-05T20:01:18.350Z,19.70
2022-11-05T20:03:45.475Z,19.70
2022-11-05T20:06:21.841Z,19.71
2022-11-05T20:11:39.957Z,19.69
2022-11-05T20:14:06.895Z,19.69
2022-11-05T20:16:38.152Z,19.69
2022-11-05T20:19:06.778Z,19.67
2022-11-05T20:21:34.161Z,19.69
2022-11-05T20:24:01.065Z,19.70
2022-11-05T20:26:27.668Z,19.70
2022-11-05T20:28:54.582Z,19.70
2022-11-05T20:31:21.641Z,19.69
2022-11-05T20:33:48.161Z,19.70
2022-11-05T20:36:18.273Z,19.69
2022-11-05T20:38:53.012Z,19.69
2022-11-05T20:41:19.962Z,19.68
2022-11-05T20:43:48.017Z,19.67
2022-11-05T20:46:17.500Z,19.67
2022-11-05T20:48:44.822Z,19.66
2022-11-05T20:51:17.627Z,19.67
2022-11-05T20:53:46.257Z,19.68
2022-11-05T20:56:21.640Z,19.65
2022-11-05T20:58:48.883Z,19.67
2022-11-05T21:01:16.724Z,19.66
2022-11-05T21:03:44.405Z,19.65
2022-11-05T21:06:11.792Z,19.65
2022-11-05T21:08:38.981Z,19.66
2022-11-05T21:11:07.082Z,19.65
2022-11-05T21:13:34.064Z,19.64
2022-11-05T21:16:01.408Z,19.64
2022-11-05T21:18:32.329Z,19.65
2022-11-05T21:21:01.935Z,19.65
2022-11-05T21:23:28.771Z,19.64
2022-11-05T21:25:56.019Z,19.65
2022-11-05T21:28:22.914Z,19.64
2022-11-05T21:30:49.518Z,19.63
2022-11-05T21:33:18.168Z,19.63
2022-11-05T21:35:48.102Z,19.64
2022-11-05T21:38:16.794Z,19.64
2022-11-05T21:40:44.117Z,19.63
2022-11-05T21:43:11.419Z,19.64
2022-11-05T21:45:39.717Z,19.63
2022-11-05T21:48:07.528Z,19.63
2022-11-05T21:50:53.116Z,19.62
2022-11-05T21:53:38.469Z,19.62
2022-11-05T21:56:43.650Z,19.61
2022-11-05T21:59:32.202Z,19.61
2022-11-05T22:02:02.504Z,19.62
2022-11-05T22:04:34.070Z,19.61
2022-11-05T22:07:00.634Z,19.60
2022-11-05T22:09:27.706Z,19.62
2022-11-05T22:11:54.851Z,19.62
2022-11-05T22:14:21.921Z,19.59
2022-11-05T22:16:48.636Z,19.60
2022-11-05T22:19:15.170Z,19.58
2022-11-05T22:21:42.065Z,19.60
2022-11-05T22:24:09.114Z,19.59
2022-11-05T22:26:37.219Z,19.60
2022-11-05T22:29:04.212Z,19.59
2022-11-05T22:31:36.001Z,19.60
2022-11-05T22:34:04.540Z,19.58
2022-11-05T22:36:31.765Z,19.58
2022-11-05T22:38:58.508Z,19.59
2022-11-05T22:41:25.058Z,19.58
2022-11-05T22:43:51.530Z,19.58
2022-11-05T22:46:23.581Z,19.57
2022-11-05T22:48:51.542Z,19.57
2022-11-05T22:51:22.230Z,19.57
2022-11-05T22:53:49.196Z,19.59
2022-11-05T22:56:18.644Z,19.57
2022-11-05T22:58:45.237Z,19.56
2022-11-05T23:01:13.275Z,19.57
2022-11-05T23:03:41.522Z,19.57
2022-11-05T23:06:31.229Z,19.57
2022-11-05T23:09:16.993Z,19.57
2022-11-05T23:11:47.698Z,19.56
2022-11-05T23:14:14.874Z,19.57
2022-11-05T23:17:00.692Z,19.56
2022-11-05T23:19:46.065Z,19.56
2022-11-05T23:22:37.664Z,19.54
2022-11-05T23:25:05.838Z,19.56
2022-11-05T23:27:35.114Z,19.55
2022-11-05T23:30:05.084Z,19.55
2022-11-05T23:32:32.396Z,19.55
2022-11-05T23:34:59.360Z,19.56
2022-11-05T23:37:47.924Z,19.55
2022-11-05T23:40:25.582Z,19.54
2022-11-05T23:43:10.677Z,19.55
2022-11-05T23:45:57.274Z,19.54
2022-11-05T23:48:33.740Z,19.55
2022-11-05T23:51:09.525Z,19.54
2022-11-05T23:53:41.048Z,19.55
2022-11-05T23:56:13.817Z,19.55
2022-11-05T23:58:41.250Z,19.55
